METAR Data
IDs: Format: Raw Decoded Include TAF

Data at: 0543 UTC 19 Aug 2019

KFYV 190453Z AUTO 00000KT 10SM FEW110 23/22 A2999 RMK AO2 SLP139 T02280222
KFYV 190353Z AUTO 18004KT 10SM BKN100 24/22 A2999 RMK AO2 SLP138 T02390222
KFYV 190253Z AUTO 00000KT 10SM BKN100 OVC110 24/22 A2998 RMK AO2 SLP134 T02440222 53026
KFYV 190153Z 00000KT 10SM CLR 24/22 A2994 RMK AO2 SLP124 T02440217
KFYV 190053Z 00000KT 10SM BKN100 27/23 A2992 RMK AO2 SLP115 T02670233
KFYV 182353Z 19004KT 10SM CLR 29/23 A2990 RMK AO2 SLP107 60005 T02890228 10294 20211 56004
KFYV 182253Z 23006KT 10SM FEW095 29/23 A2990 RMK AO2 SLP108 T02890228
KFYV 182153Z 00000KT 10SM CLR 28/21 A2990 RMK AO2 RAB17E27 SLP109 P0000 T02780206
KFYV 182053Z 20007KT 10SM CLR 27/21 A2991 RMK AO2 SLP111 60005 T02720211 55021
KFYV 181953Z 20006KT 10SM CLR 26/21 A2990 RMK AO2 SLP110 T02610206
KFYV 181909Z 15005KT 10SM CLR 23/19 A2993 RMK AO2 LTG DSNT E-S T02330194
KFYV 181853Z 19012KT 10SM VCTS FEW110 22/19 A2993 RMK AO2 PK WND 17032/1815 WSHFT 1759 LTG DSNT NE-S RAE53 TSE38 SLP120 P0005 T02220189
KFYV 181843Z 19009KT 10SM -RA FEW049 BKN110 22/19 A2992 RMK AO2 PK WND 17032/1815 WSHFT 1759 LTG DSNT E-S TSE38 P0005 T02170189
KFYV 181819Z 17024G32KT 10SM -TSRA FEW055 SCT095 BKN110 21/19 A2996 RMK AO2 PK WND 17032/1815 WSHFT 1759 LTG DSNT E-SW P0004 T02110194
KFYV 181753Z 30022G30KT 7SM TSRA FEW032 BKN047 OVC085 23/19 A2997 RMK AO2 PK WND 30030/1753 LTG DSNT SW AND W RAB41 TSB35 SLP135 P0001 60001 T02330189 10300 20228 50001
KFYV 181741Z 30018G25KT 10SM -TSRA FEW028 BKN050 OVC085 27/23 A2998 RMK AO2 LTG DSNT SW-NW RAB41 TSB35 P0000 T02720228
KFYV 181729Z 27005KT 10SM VCTS FEW038 BKN055 BKN080 28/24 A2999 RMK AO2 LTG DSNT ALQDS T02780239
KFYV 181653Z 23008KT 10SM FEW027 SCT045 BKN090 29/24 A2998 RMK AO2 LTG DSNT W AND NW SLP134 T02890239
KFYV 181553Z 22007KT 200V260 10SM CLR 29/24 A2998 RMK AO2 SLP136 T02940244
KFYV 181453Z 20004KT 10SM CLR 28/23 A2997 RMK AO2 SLP131 T02780233 51015
KFYV 181422Z 11005KT 10SM FEW025 SCT033 27/22 A2996 RMK AO2 T02670222
KFYV 181353Z 07005KT 10SM OVC022 25/22 A2996 RMK AO2 SLP128 T02500222
KFYV 181312Z 06003KT 10SM BKN027 BKN042 OVC050 24/23 A2996 RMK AO2 T02440228
KFYV 181253Z 12003KT 10SM FEW031 BKN044 BKN080 24/22 A2996 RMK AO2 SLP128 T02440222
KFYV 181153Z 11003KT 10SM CLR 23/22 A2993 RMK AO2 SLP116 T02280217 10272 20228 53012
KFYV 181053Z 19003KT 10SM CLR 24/22 A2989 RMK AO2 SLP104 T02390217
KFYV 180953Z AUTO 18005KT 10SM CLR 25/22 A2989 RMK AO2 SLP102 T02500217
KFYV 180853Z AUTO 18008KT 10SM CLR 25/21 A2989 RMK AO2 SLP103 T02500211 55002
KFYV 180753Z AUTO 17006KT 10SM CLR 26/21 A2989 RMK AO2 SLP102 T02560211
KFYV 180653Z AUTO 18008KT 10SM CLR 26/21 A2989 RMK AO2 SLP103 T02610211
KFYV 180553Z AUTO 16008KT 10SM CLR 27/21 A2990 RMK AO2 SLP105 T02720211 10311 20256 403280200 50003
KFYV 180453Z AUTO 16006G15KT 10SM CLR 27/21 A2990 RMK AO2 SLP107 T02720211
KFYV 180353Z AUTO 17007KT 10SM CLR 27/21 A2990 RMK AO2 SLP108 T02720211
KFYV 180253Z AUTO 20004KT 10SM CLR 26/21 A2989 RMK AO2 SLP103 T02610211 53010
KFYV 180153Z 15006KT 10SM CLR 28/21 A2986 RMK AO2 SLP094 T02830206
KFYV 180053Z 13007KT 10SM CLR 29/22 A2985 RMK AO2 SLP091 T02940217
KFYV 172353Z 13007G16KT 10SM CLR 31/22 A2986 RMK AO2 SLP095 T03110217 10328 20306 58014
KFYV 172253Z 17009KT 10SM CLR 32/22 A2988 RMK AO2 SLP099 T03220222
KFYV 172153Z 18008KT 10SM CLR 32/22 A2989 RMK AO2 SLP104 T03220222
KFYV 172053Z 19011G16KT 10SM CLR 33/22 A2990 RMK AO2 SLP107 T03280217 57017
KFYV 171953Z 20008KT 10SM FEW049 32/22 A2992 RMK AO2 SLP114 T03220222
KFYV 171853Z 17008KT 10SM BKN046 32/23 A2993 RMK AO2 SLP118 T03220228
KFYV 171753Z VRB05KT 10SM FEW042 31/23 A2995 RMK AO2 SLP125 T03110233 10311 20200 58008